Time;durP1;ratioP1;P1;durP2;ratioP2;P2;SDS_P1;SDS_P2;PMS_P1;PMS_P2;Temp;Humidity;BMP_temperature;BMP_pressure;BME280_temperature;BME280_humidity;BME280_pressure;Samples;Min_cycle;Max_cycle;Signal;HPM_P1;HPM_P2
2022/09/13 00:01:50;;;;;;;1.30;1.00;;;;;;;22.94;59.12;100674.56;4928872;29;20533;-77
2022/09/13 00:04:18;;;;;;;1.50;1.40;;;;;;;22.94;60.37;100666.19;4925708;29;20048;-77
2022/09/13 00:06:46;;;;;;;1.95;1.25;;;;;;;23.02;58.76;100672.75;4934248;29;20062;-77
2022/09/13 00:09:14;;;;;;;0.82;0.82;;;;;;;22.96;59.26;100682.56;4934792;29;20043;-77
2022/09/13 00:11:41;;;;;;;1.88;0.90;;;;;;;22.92;60.69;100665.75;4921370;29;20043;-77
2022/09/13 00:14:09;;;;;;;1.00;1.00;;;;;;;22.87;60.28;100671.59;4937266;29;20059;-77
2022/09/13 00:16:37;;;;;;;0.95;0.88;;;;;;;22.84;60.73;100669.56;4938152;29;20475;-77
2022/09/13 00:19:05;;;;;;;0.95;0.82;;;;;;;22.81;60.42;100668.28;4928386;29;20051;-77
2022/09/13 00:21:33;;;;;;;1.05;0.90;;;;;;;22.74;59.53;100676.50;4938067;29;20039;-77
2022/09/13 00:24:01;;;;;;;0.85;0.85;;;;;;;22.78;58.97;100666.22;4938258;29;20051;-77
2022/09/13 00:26:29;;;;;;;1.08;0.98;;;;;;;22.73;58.68;100660.91;4935822;29;20055;-77
2022/09/13 00:28:57;;;;;;;1.25;1.15;;;;;;;22.68;59.92;100661.22;4926169;29;20051;-77
2022/09/13 00:31:27;;;;;;;2.42;1.05;;;;;;;22.68;59.99;100664.00;4937618;29;20059;-77
2022/09/13 00:33:57;;;;;;;0.82;0.82;;;;;;;22.60;59.65;100664.97;4937045;29;20062;-77
2022/09/13 00:36:25;;;;;;;1.38;0.80;;;;;;;22.60;58.53;100663.00;4930970;29;20067;-77
2022/09/13 00:38:53;;;;;;;1.85;1.00;;;;;;;22.50;59.74;100660.72;4919158;29;20052;-77
2022/09/13 00:41:21;;;;;;;1.00;1.00;;;;;;;22.51;59.58;100665.94;4918500;29;20048;-77
2022/09/13 00:43:53;;;;;;;1.05;0.85;;;;;;;22.52;59.70;100659.22;4918186;29;20044;-77
2022/09/13 00:46:36;;;;;;;0.93;0.93;;;;;;;22.41;59.82;100663.69;4918298;29;20056;-77
2022/09/13 00:49:12;;;;;;;2.00;0.90;;;;;;;22.46;59.63;100660.63;4926747;29;20051;-77
2022/09/13 00:51:45;;;;;;;2.50;0.85;;;;;;;22.46;59.91;100666.22;4934787;29;20054;-77
2022/09/13 00:54:15;;;;;;;0.95;0.75;;;;;;;22.34;60.94;100663.50;4935503;29;20055;-77
2022/09/13 00:56:47;;;;;;;1.10;1.00;;;;;;;22.31;61.84;100658.63;4936759;29;20052;-77
2022/09/13 00:59:23;;;;;;;0.98;0.95;;;;;;;22.21;62.35;100660.81;4937293;29;20491;-77
2022/09/13 01:01:54;;;;;;;0.85;0.85;;;;;;;22.10;62.78;100659.72;4936907;29;20071;-77
2022/09/13 01:04:26;;;;;;;3.22;1.13;;;;;;;22.19;63.18;100654.75;4937430;29;20044;-77
2022/09/13 01:06:59;;;;;;;2.60;1.25;;;;;;;22.00;63.13;100664.63;4936251;29;20376;-77
2022/09/13 01:09:31;;;;;;;1.23;1.13;;;;;;;21.87;63.55;100655.53;4937053;29;20438;-77
2022/09/13 01:12:25;;;;;;;1.67;1.25;;;;;;;21.89;63.32;100663.53;4937508;29;20399;-77
2022/09/13 01:14:56;;;;;;;1.57;1.30;;;;;;;21.78;63.90;100656.84;4875620;29;20403;-77
2022/09/13 01:17:27;;;;;;;1.75;1.35;;;;;;;21.79;63.68;100659.28;4936561;29;20303;-77
2022/09/13 01:19:55;;;;;;;1.38;1.27;;;;;;;21.78;63.73;100659.63;4936898;29;20455;-77
2022/09/13 01:22:47;;;;;;;3.40;1.17;;;;;;;21.66;64.08;100658.50;4936311;29;20503;-77
2022/09/13 01:25:34;;;;;;;1.08;0.95;;;;;;;21.71;63.49;100652.69;4935588;29;20058;-77
2022/09/13 01:28:17;;;;;;;2.63;1.35;;;;;;;21.73;63.51;100657.91;4936488;29;20059;-77
2022/09/13 01:31:02;;;;;;;1.20;1.02;;;;;;;21.71;63.74;100655.47;4936992;29;20060;-77
2022/09/13 01:33:50;;;;;;;5.35;0.95;;;;;;;21.63;63.80;100648.06;4936958;29;20047;-77
2022/09/13 01:36:30;;;;;;;0.88;0.88;;;;;;;21.60;64.32;100645.97;4901099;29;20059;-77
2022/09/13 01:39:05;;;;;;;1.15;1.05;;;;;;;21.55;64.27;100646.25;4923526;29;20056;-77
2022/09/13 01:41:52;;;;;;;2.08;1.08;;;;;;;21.60;63.66;100651.53;4936744;29;20056;-76
2022/09/13 01:44:32;;;;;;;2.85;1.15;;;;;;;21.51;64.43;100642.56;4925627;29;20059;-77
2022/09/13 01:47:16;;;;;;;0.98;0.98;;;;;;;21.45;64.42;100647.53;4933179;29;20059;-77
2022/09/13 01:49:48;;;;;;;;;;;;;;;21.48;64.27;100647.66;4929282;29;20044;-77
2022/09/13 01:52:16;;;;;;;1.42;1.33;;;;;;;21.51;64.46;100648.91;4934114;29;19927;-77
2022/09/13 01:55:05;;;;;;;1.52;1.42;;;;;;;21.46;64.41;100641.63;4935695;29;20064;-77
2022/09/13 01:57:53;;;;;;;5.47;1.63;;;;;;;21.33;64.85;100652.00;4935524;29;20055;-77
2022/09/13 02:00:21;;;;;;;1.95;1.75;;;;;;;21.43;64.91;100642.34;4919030;29;20063;-77
2022/09/13 02:03:09;;;;;;;1.40;1.30;;;;;;;21.41;65.27;100636.31;4935937;29;20051;-77
2022/09/13 02:05:49;;;;;;;1.15;1.05;;;;;;;21.31;64.94;100653.53;4935558;29;20422;-77
2022/09/13 02:08:27;;;;;;;2.60;0.98;;;;;;;21.31;64.94;100647.97;4936098;29;20047;-77
2022/09/13 02:11:12;;;;;;;1.42;1.17;;;;;;;21.32;65.29;100646.78;4936263;29;20051;-77
2022/09/13 02:13:53;;;;;;;1.27;1.20;;;;;;;21.29;65.37;100639.94;4935564;29;20063;-77
2022/09/13 02:16:39;;;;;;;1.33;1.13;;;;;;;21.23;64.96;100649.72;4916409;29;20411;-76
2022/09/13 02:19:18;;;;;;;1.13;0.90;;;;;;;21.18;66.36;100650.78;4927233;29;20055;-77
2022/09/13 02:21:52;;;;;;;1.08;0.98;;;;;;;21.19;65.21;100635.69;4928179;29;20067;-77
2022/09/13 02:24:26;;;;;;;1.10;1.00;;;;;;;21.15;65.18;100633.94;4918855;29;20059;-77
2022/09/13 02:26:57;;;;;;;1.80;1.13;;;;;;;21.14;65.20;100635.94;4919505;29;20048;-77
2022/09/13 02:29:27;;;;;;;1.85;1.23;;;;;;;21.06;64.99;100628.50;4918846;29;20059;-77
2022/09/13 02:32:17;;;;;;;1.67;1.50;;;;;;;21.14;65.09;100621.19;4916600;29;20051;-77
2022/09/13 02:34:50;;;;;;;2.33;1.23;;;;;;;21.11;66.08;100621.91;4915964;29;20060;-77
2022/09/13 02:37:19;;;;;;;3.38;1.10;;;;;;;21.10;65.40;100615.53;4916279;29;20423;-77
2022/09/13 02:39:55;;;;;;;2.08;1.50;;;;;;;21.12;65.22;100617.97;4916309;29;20059;-77
2022/09/13 02:42:32;;;;;;;1.88;1.48;;;;;;;21.07;65.95;100617.03;4914079;29;20487;-77
2022/09/13 02:45:00;;;;;;;1.58;1.20;;;;;;;21.05;65.67;100612.97;4915841;29;20514;-77
2022/09/13 02:47:41;;;;;;;1.65;1.38;;;;;;;21.01;66.32;100623.22;4915950;29;20522;-77
2022/09/13 02:50:48;;;;;;;1.50;1.40;;;;;;;20.94;66.38;100613.50;4915884;29;20058;-77
2022/09/13 02:53:37;;;;;;;1.50;1.40;;;;;;;20.92;66.46;100615.00;4932736;29;20047;-77
2022/09/13 02:56:20;;;;;;;1.67;1.45;;;;;;;20.93;66.56;100611.84;4922023;29;20059;-77
2022/09/13 02:58:57;;;;;;;2.28;1.70;;;;;;;20.87;66.44;100610.47;4917490;29;20044;-77
2022/09/13 03:01:25;;;;;;;3.55;1.92;;;;;;;20.86;66.94;100605.28;4916299;29;20044;-77
2022/09/13 03:03:53;;;;;;;2.80;1.50;;;;;;;20.83;66.38;100594.81;4915243;29;20059;-77
2022/09/13 03:06:26;;;;;;;2.17;1.48;;;;;;;20.80;66.95;100605.47;4915307;29;20415;-76
2022/09/13 03:08:58;;;;;;;1.58;1.33;;;;;;;20.84;66.25;100590.84;4915340;29;20056;-77
2022/09/13 03:11:45;;;;;;;1.42;1.33;;;;;;;20.84;66.80;100586.13;4915419;29;20056;-77
2022/09/13 03:14:34;;;;;;;1.55;1.40;;;;;;;20.83;66.52;100587.28;4916063;29;20052;-76
2022/09/13 03:17:29;;;;;;;1.67;1.55;;;;;;;20.83;66.88;100578.13;4915334;29;20064;-77
2022/09/13 03:20:11;;;;;;;3.05;1.40;;;;;;;20.82;68.18;100591.19;4901269;29;20047;-77
2022/09/13 03:23:19;;;;;;;1.13;1.13;;;;;;;20.79;66.91;100589.13;4915366;29;20392;-77
2022/09/13 03:25:59;;;;;;;1.42;1.33;;;;;;;20.76;66.92;100584.25;4914983;29;20052;-77
2022/09/13 03:28:27;;;;;;;2.10;1.13;;;;;;;20.79;66.27;100584.41;4915390;29;20416;-77
2022/09/13 03:31:17;;;;;;;3.20;1.20;;;;;;;20.81;65.68;100570.13;4915887;29;20052;-77
2022/09/13 03:34:10;;;;;;;1.00;1.00;;;;;;;20.74;67.40;100581.03;4915253;29;20049;-77
2022/09/13 03:36:53;;;;;;;0.95;0.95;;;;;;;20.76;66.40;100576.75;4915581;29;20051;-77
2022/09/13 03:39:41;;;;;;;1.98;1.40;;;;;;;20.78;66.13;100581.97;4915745;29;20044;-77
2022/09/13 03:42:35;;;;;;;1.75;1.23;;;;;;;20.73;66.81;100573.84;4922067;29;20407;-77
2022/09/13 03:45:05;;;;;;;1.95;1.75;;;;;;;20.67;66.94;100579.66;4915367;29;20060;-77
2022/09/13 03:47:36;;;;;;;2.58;1.58;;;;;;;20.74;67.09;100592.97;4917149;29;20059;-77
2022/09/13 03:50:06;;;;;;;5.93;2.00;;;;;;;20.72;67.13;100577.81;4919557;29;20052;-76
2022/09/13 03:52:34;;;;;;;6.47;1.55;;;;;;;20.73;66.40;100573.84;4921322;29;20063;-76
2022/09/13 03:55:02;;;;;;;1.67;1.52;;;;;;;20.70;66.55;100580.91;4938736;29;20044;-77
2022/09/13 03:57:30;;;;;;;5.25;1.42;;;;;;;20.67;67.25;100560.19;4938079;29;20059;-76
2022/09/13 03:59:58;;;;;;;3.92;1.58;;;;;;;20.59;67.19;100575.03;4938536;29;20380;-76
2022/09/13 04:02:27;;;;;;;4.03;2.20;;;;;;;20.58;67.39;100578.16;4938624;29;20081;-76
2022/09/13 04:04:55;;;;;;;4.43;2.15;;;;;;;20.54;67.93;100578.03;4938471;29;20051;-77
2022/09/13 04:07:24;;;;;;;3.22;1.73;;;;;;;20.57;67.41;100577.34;4938628;29;20048;-77
2022/09/13 04:09:52;;;;;;;2.50;1.70;;;;;;;20.54;67.48;100578.84;4938299;29;20048;-77
2022/09/13 04:12:19;;;;;;;2.65;1.70;;;;;;;20.55;68.20;100585.22;4938183;29;20056;-77
2022/09/13 04:14:47;;;;;;;3.17;1.88;;;;;;;20.50;68.08;100585.44;4938331;29;20040;-77
2022/09/13 04:17:16;;;;;;;4.15;2.20;;;;;;;20.50;68.95;100588.22;4938186;29;20051;-77
2022/09/13 04:19:45;;;;;;;6.50;2.10;;;;;;;20.48;67.93;100590.56;4937974;29;20047;-77
2022/09/13 04:22:14;;;;;;;2.85;2.42;;;;;;;20.52;68.88;100583.13;4938248;29;20082;-76
2022/09/13 04:24:43;;;;;;;6.13;2.72;;;;;;;20.51;68.76;100581.50;4938167;29;20059;-76
2022/09/13 04:27:12;;;;;;;1.95;1.83;;;;;;;20.56;67.54;100575.72;4934255;29;20036;-76
2022/09/13 04:29:39;;;;;;;1.63;1.52;;;;;;;20.56;68.29;100575.72;4921104;29;20413;-87
2022/09/13 04:32:08;;;;;;;2.50;2.08;;;;;;;20.62;68.02;100585.44;4929514;29;20399;-93
2022/09/13 04:34:36;;;;;;;3.47;1.92;;;;;;;20.70;67.98;100582.88;4938296;29;20043;-94
2022/09/13 04:37:04;;;;;;;4.97;2.10;;;;;;;20.71;66.84;100582.53;4925163;29;20046;-94
2022/09/13 04:39:32;;;;;;;1.90;1.58;;;;;;;20.81;67.14;100581.25;4939535;29;20051;-93
2022/09/13 04:42:01;;;;;;;3.05;1.98;;;;;;;21.07;66.97;100577.28;4923787;29;20060;-93
2022/09/13 04:44:29;;;;;;;1.70;1.60;;;;;;;21.05;65.85;100583.22;4921561;29;20052;-93
2022/09/13 04:46:57;;;;;;;4.05;1.88;;;;;;;21.24;66.50;100578.97;4922686;29;20399;-93
2022/09/13 04:49:24;;;;;;;1.70;1.60;;;;;;;21.23;65.34;100579.31;4933097;29;20044;-94
2022/09/13 04:51:52;;;;;;;1.75;1.63;;;;;;;21.21;64.86;100593.56;4930570;29;20055;-94
2022/09/13 04:54:21;;;;;;;1.70;1.60;;;;;;;21.24;65.13;100587.31;4938338;29;20050;-92
2022/09/13 04:56:48;;;;;;;2.22;1.63;;;;;;;21.16;65.96;100583.50;4938262;29;20048;-93
2022/09/13 04:59:16;;;;;;;2.72;1.83;;;;;;;21.31;65.26;100583.94;4936885;29;20052;-90
2022/09/13 05:01:44;;;;;;;3.20;1.88;;;;;;;21.77;64.12;100593.94;4904701;29;20491;-85
2022/09/13 05:04:13;;;;;;;2.13;1.63;;;;;;;22.11;62.88;100588.88;4885395;29;20402;-86
2022/09/13 05:06:40;;;;;;;2.92;1.58;;;;;;;22.36;61.32;100583.94;4874768;29;20372;-86
2022/09/13 05:09:13;;;;;;;3.70;1.73;;;;;;;22.47;60.45;100578.59;4895902;29;20040;-87
2022/09/13 05:11:42;;;;;;;2.95;1.88;;;;;;;22.21;61.26;100593.91;4885985;29;20066;-87
2022/09/13 05:14:11;;;;;;;1.70;1.60;;;;;;;22.62;60.33;100595.72;4896724;29;20063;-87
2022/09/13 05:16:39;;;;;;;2.65;1.75;;;;;;;22.71;60.23;100596.31;4917905;29;20051;-87
2022/09/13 05:19:09;;;;;;;1.77;1.67;;;;;;;22.42;61.20;100590.03;4917344;29;20400;-86
2022/09/13 05:21:37;;;;;;;3.53;1.50;;;;;;;22.58;61.10;100600.41;4923380;29;20048;-87
2022/09/13 05:24:04;;;;;;;2.25;1.40;;;;;;;22.82;60.03;100594.59;4917693;29;20043;-86
2022/09/13 05:26:32;;;;;;;1.60;1.50;;;;;;;22.99;59.47;100589.78;4902892;29;20048;-86
2022/09/13 05:29:00;;;;;;;1.95;1.67;;;;;;;22.48;60.52;100590.59;4921707;29;20040;-88
2022/09/13 05:31:37;;;;;;;2.55;1.95;;;;;;;22.44;61.28;100601.66;4919265;29;20052;-88
2022/09/13 05:34:12;;;;;;;4.70;1.90;;;;;;;22.66;61.02;100602.16;4928909;29;20400;-87
2022/09/13 05:36:41;;;;;;;2.35;1.92;;;;;;;22.86;60.64;100610.59;4917662;29;20044;-88
2022/09/13 05:39:14;;;;;;;2.45;1.85;;;;;;;23.09;59.36;100608.75;4892859;29;20039;-87
2022/09/13 05:42:02;;;;;;;2.25;1.77;;;;;;;23.06;58.84;100614.22;4926041;29;20055;-87
2022/09/13 05:44:30;;;;;;;4.93;1.65;;;;;;;23.27;58.16;100613.06;4930009;29;20048;-88
2022/09/13 05:46:58;;;;;;;1.63;1.52;;;;;;;23.21;58.63;100620.91;4929064;29;20399;-87
2022/09/13 05:49:27;;;;;;;1.75;1.65;;;;;;;23.02;58.04;100602.19;4915847;29;20056;-88
2022/09/13 05:51:55;;;;;;;2.58;2.00;;;;;;;23.01;58.94;100608.94;4934976;29;20402;-88
2022/09/13 05:54:22;;;;;;;4.72;1.73;;;;;;;23.28;58.37;100615.50;4919023;29;20044;-88
2022/09/13 05:56:51;;;;;;;1.52;1.42;;;;;;;23.43;57.88;100610.22;4911684;29;20353;-88
2022/09/13 05:59:19;;;;;;;1.70;1.50;;;;;;;23.33;57.52;100603.25;4927744;29;20059;-89
2022/09/13 06:01:47;;;;;;;2.35;1.58;;;;;;;23.33;57.71;100598.50;4926344;29;20048;-88
2022/09/13 06:04:15;;;;;;;1.67;1.10;;;;;;;23.40;57.37;100594.22;4928373;29;20047;-88
2022/09/13 06:06:43;;;;;;;2.00;1.30;;;;;;;23.57;56.63;100607.75;4916185;29;20399;-88
2022/09/13 06:09:11;;;;;;;1.60;1.50;;;;;;;23.64;56.44;100603.47;4900319;29;20604;-88
2022/09/13 06:11:39;;;;;;;1.73;1.35;;;;;;;23.78;56.39;100597.31;4925769;29;20415;-88
2022/09/13 06:14:08;;;;;;;2.83;1.17;;;;;;;23.89;55.08;100599.16;4933568;29;20044;-88
2022/09/13 06:16:36;;;;;;;1.40;1.30;;;;;;;24.01;55.13;100617.72;4916076;29;20056;-89
2022/09/13 06:19:04;;;;;;;2.67;1.30;;;;;;;24.10;55.43;100614.69;4932442;29;20055;-88
2022/09/13 06:21:32;;;;;;;1.80;1.70;;;;;;;23.96;55.75;100612.47;4915805;29;20069;-87
2022/09/13 06:24:06;;;;;;;1.30;1.20;;;;;;;23.99;55.80;100613.66;4919513;29;20407;-88
2022/09/13 06:26:34;;;;;;;;;;;;;;;24.12;54.91;100612.38;4925535;29;20040;-88
2022/09/13 06:29:01;;;;;;;2.15;1.60;;;;;;;24.19;55.34;100622.06;4919147;29;19923;-88
2022/09/13 06:31:29;;;;;;;2.97;1.77;;;;;;;24.21;55.17;100616.88;4914622;29;20048;-88
2022/09/13 06:34:01;;;;;;;5.65;1.70;;;;;;;24.45;54.77;100617.69;4915337;29;20510;-88
2022/09/13 06:36:30;;;;;;;1.95;1.73;;;;;;;24.56;55.33;100625.06;4930794;29;20063;-88
2022/09/13 06:38:59;;;;;;;2.75;2.00;;;;;;;24.73;55.05;100624.91;4916263;29;20091;-88
2022/09/13 06:41:27;;;;;;;2.80;2.08;;;;;;;24.75;55.32;100625.31;4899853;29;20059;-88
2022/09/13 06:43:59;;;;;;;3.58;2.03;;;;;;;24.84;54.41;100628.72;4916833;29;20407;-87
2022/09/13 06:46:30;;;;;;;2.90;1.70;;;;;;;24.78;53.99;100622.59;4915146;29;20052;-88
2022/09/13 06:49:00;;;;;;;6.28;2.17;;;;;;;24.75;54.78;100626.16;4884441;29;20056;-87
2022/09/13 06:51:29;;;;;;;2.75;1.60;;;;;;;24.69;53.72;100611.66;4906359;29;20035;-88
2022/09/13 06:53:57;;;;;;;2.67;1.70;;;;;;;24.67;54.47;100622.44;4917873;29;20503;-88
2022/09/13 06:56:28;;;;;;;1.98;1.55;;;;;;;24.85;53.61;100607.94;4907919;29;20052;-87
2022/09/13 06:58:58;;;;;;;2.70;1.20;;;;;;;24.79;53.37;100626.19;4935006;29;20048;-86
2022/09/13 07:01:31;;;;;;;2.30;1.38;;;;;;;24.77;53.73;100622.94;4918097;29;20059;-87
2022/09/13 07:04:08;;;;;;;1.73;1.38;;;;;;;24.76;52.84;100612.94;4918034;29;20068;-87
2022/09/13 07:06:38;;;;;;;3.00;1.60;;;;;;;24.89;53.59;100608.78;4935079;29;20066;-87
2022/09/13 07:09:08;;;;;;;4.32;1.38;;;;;;;24.85;53.29;100621.91;4935025;29;20771;-87
2022/09/13 07:11:39;;;;;;;3.25;1.58;;;;;;;24.99;52.71;100614.91;4934894;29;20044;-86
2022/09/13 07:14:08;;;;;;;2.08;1.88;;;;;;;25.00;53.65;100611.72;4934851;29;20056;-87
2022/09/13 07:16:37;;;;;;;4.25;1.95;;;;;;;25.13;53.02;100611.50;4917630;29;20411;-87
2022/09/13 07:19:07;;;;;;;1.80;1.50;;;;;;;25.22;52.71;100612.81;4934672;29;20044;-86
2022/09/13 07:21:35;;;;;;;2.10;1.90;;;;;;;25.19;52.15;100621.16;4934153;29;20043;-87
2022/09/13 07:24:03;;;;;;;6.15;2.03;;;;;;;24.91;52.78;100612.00;4934560;29;20051;-90
2022/09/13 07:26:31;;;;;;;3.05;1.90;;;;;;;25.03;53.84;100613.75;4934552;29;20486;-87
2022/09/13 07:29:01;;;;;;;1.73;1.52;;;;;;;25.10;53.28;100621.47;4934900;29;20052;-87
2022/09/13 07:31:33;;;;;;;7.97;2.40;;;;;;;25.17;52.65;100620.75;4917609;29;20403;-88
2022/09/13 07:34:07;;;;;;;2.80;1.75;;;;;;;25.31;52.95;100612.53;4917949;29;20043;-87
2022/09/13 07:36:35;;;;;;;1.98;1.80;;;;;;;25.26;54.03;100617.66;4934422;29;20487;-88
2022/09/13 07:39:04;;;;;;;4.55;1.85;;;;;;;25.25;54.10;100610.44;4934481;29;20502;-87
2022/09/13 07:41:33;;;;;;;2.22;1.58;;;;;;;25.22;54.92;100609.22;4934569;29;20491;-88
2022/09/13 07:44:03;;;;;;;1.63;1.50;;;;;;;25.23;54.74;100610.84;4934633;29;20502;-87
2022/09/13 07:46:32;;;;;;;2.83;1.63;;;;;;;25.30;54.96;100610.09;4934479;29;20043;-87
2022/09/13 07:49:01;;;;;;;3.70;1.52;;;;;;;25.48;54.42;100599.91;4916492;29;20055;-88
2022/09/13 07:51:31;;;;;;;1.50;1.30;;;;;;;25.41;54.47;100611.03;4922634;29;20517;-88
2022/09/13 07:54:02;;;;;;;3.08;1.30;;;;;;;25.70;53.87;100607.81;4897793;29;20067;-84
2022/09/13 07:56:32;;;;;;;7.22;1.45;;;;;;;25.53;54.77;100612.81;4934548;29;20056;-86
2022/09/13 07:59:03;;;;;;;2.42;1.25;;;;;;;25.74;53.79;100612.25;4934367;29;20055;-87
2022/09/13 08:01:40;;;;;;;3.35;1.50;;;;;;;25.74;54.72;100634.66;4934501;29;20055;-87
2022/09/13 08:04:11;;;;;;;1.67;1.33;;;;;;;25.76;54.30;100637.88;4934428;29;20066;-87
2022/09/13 08:06:40;;;;;;;1.63;1.50;;;;;;;25.70;54.55;100633.81;4934379;29;20051;-87
2022/09/13 08:09:09;;;;;;;5.00;1.42;;;;;;;25.83;54.33;100634.38;4901915;29;20059;-86
2022/09/13 08:11:40;;;;;;;2.25;1.70;;;;;;;25.92;55.20;100633.25;4933043;29;20047;-87
2022/09/13 08:14:12;;;;;;;1.90;1.23;;;;;;;25.98;53.61;100629.72;4934303;29;20055;-86
2022/09/13 08:16:40;;;;;;;2.28;1.63;;;;;;;25.86;53.77;100632.78;4934176;29;20074;-87
2022/09/13 08:19:12;;;;;;;1.70;1.30;;;;;;;25.79;53.73;100629.91;4917290;29;20044;-87
2022/09/13 08:21:42;;;;;;;1.80;1.40;;;;;;;25.90;54.01;100622.41;4934053;29;20498;-87
2022/09/13 08:24:14;;;;;;;1.55;1.42;;;;;;;25.84;54.22;100629.56;4934439;29;20051;-87
2022/09/13 08:26:43;;;;;;;4.60;2.10;;;;;;;25.80;55.48;100631.53;4933958;29;20067;-88
2022/09/13 08:29:12;;;;;;;4.95;1.60;;;;;;;25.91;55.03;100638.06;4916945;29;20059;-87
2022/09/13 08:31:40;;;;;;;1.23;1.13;;;;;;;26.10;53.55;100648.22;4901235;29;20051;-87
2022/09/13 08:34:13;;;;;;;3.22;1.83;;;;;;;26.02;53.08;100640.97;4936177;29;20051;-87
2022/09/13 08:36:42;;;;;;;;;;;;;;;26.09;53.94;100646.63;4938020;29;20039;-88
2022/09/13 08:39:13;;;;;;;1.58;1.13;;;;;;;26.29;53.16;100638.00;4920531;29;19927;-87
2022/09/13 08:41:43;;;;;;;2.53;1.40;;;;;;;26.47;52.42;100646.59;4939208;29;20055;-86
2022/09/13 08:44:25;;;;;;;2.47;1.42;;;;;;;26.54;52.91;100643.84;4937568;29;20510;-87
2022/09/13 08:47:05;;;;;;;1.73;1.35;;;;;;;26.62;52.96;100635.47;4937381;29;20048;-87
2022/09/13 08:49:38;;;;;;;4.80;1.75;;;;;;;26.63;52.06;100642.72;4915129;29;20036;-86
2022/09/13 08:52:14;;;;;;;2.90;1.50;;;;;;;26.64;50.66;100653.53;4930310;29;20054;-86
2022/09/13 08:54:42;;;;;;;2.47;1.80;;;;;;;26.52;51.52;100654.66;4924135;29;20051;-86
2022/09/13 08:57:19;;;;;;;5.78;1.90;;;;;;;26.56;51.17;100649.88;4937353;29;20063;-87
2022/09/13 09:00:02;;;;;;;1.98;1.60;;;;;;;26.58;51.99;100648.69;4937253;29;20051;-85
2022/09/13 09:02:53;;;;;;;3.30;2.38;;;;;;;26.53;52.69;100650.66;4937183;29;20059;-87
2022/09/13 09:05:24;;;;;;;2.33;1.98;;;;;;;26.51;51.14;100647.44;4912930;29;20059;-87
2022/09/13 09:07:58;;;;;;;3.72;2.17;;;;;;;26.80;51.13;100644.03;4937107;29;20043;-86
2022/09/13 09:10:32;;;;;;;2.70;2.13;;;;;;;26.81;50.96;100648.44;4919934;29;20499;-87
2022/09/13 09:13:13;;;;;;;;;;;;;;;26.90;51.66;100648.09;4920287;29;20047;-86
2022/09/13 09:15:44;;;;;;;2.95;2.60;;;;;;;27.02;50.65;100642.19;4936967;29;20390;-85
2022/09/13 09:18:19;;;;;;;3.60;2.35;;;;;;;26.89;51.07;100654.91;4936890;29;20063;-86
2022/09/13 09:20:52;;;;;;;4.97;2.78;;;;;;;26.89;51.61;100649.28;4936927;29;20052;-85
2022/09/13 09:23:25;;;;;;;3.38;2.50;;;;;;;27.05;50.84;100652.63;4936861;29;20055;-85
2022/09/13 09:26:16;;;;;;;2.67;2.47;;;;;;;26.98;50.32;100651.78;4936867;29;20513;-86
2022/09/13 09:28:53;;;;;;;2.55;2.28;;;;;;;26.91;50.85;100652.50;4924298;29;20055;-88
2022/09/13 09:31:31;;;;;;;3.33;2.20;;;;;;;27.20;50.16;100653.53;4936804;29;20056;-86
2022/09/13 09:34:11;;;;;;;2.60;2.40;;;;;;;27.16;50.21;100658.31;4924732;29;20055;-86
2022/09/13 09:36:45;;;;;;;1.88;1.77;;;;;;;27.36;49.92;100660.78;4936558;29;20058;-87
2022/09/13 09:39:15;;;;;;;4.25;2.17;;;;;;;27.40;49.97;100658.81;4936519;29;20056;-86
2022/09/13 09:41:44;;;;;;;2.47;2.28;;;;;;;27.53;49.62;100636.81;4936510;29;20481;-87
2022/09/13 09:44:30;;;;;;;2.42;2.22;;;;;;;27.57;49.17;100654.47;4919435;29;20059;-87
2022/09/13 09:46:58;;;;;;;1.65;1.40;;;;;;;27.54;48.78;100652.47;4936061;29;20055;-85
2022/09/13 09:52:22;;;;;;;2.22;2.00;;;;;;;27.58;49.15;100636.44;4930800;29;20048;-87
2022/09/13 09:54:50;;;;;;;5.28;2.40;;;;;;;27.53;48.87;100645.22;4936323;29;20415;-85
2022/09/13 09:57:19;;;;;;;3.85;2.90;;;;;;;27.69;48.88;100638.47;4936525;29;20047;-86
2022/09/13 09:59:47;;;;;;;6.55;2.22;;;;;;;27.88;48.11;100640.13;4919071;29;20040;-87
2022/09/13 10:02:20;;;;;;;2.20;2.10;;;;;;;27.71;48.83;100642.50;4936194;29;20043;-86
2022/09/13 10:04:57;;;;;;;2.47;2.28;;;;;;;27.85;48.35;100636.09;4934093;29;20047;-86
2022/09/13 10:07:33;;;;;;;3.85;2.70;;;;;;;27.81;47.45;100632.47;4936104;29;20055;-88
2022/09/13 10:10:21;;;;;;;2.53;1.83;;;;;;;28.01;47.23;100627.28;4935365;29;20040;-86
2022/09/13 10:12:54;;;;;;;3.67;2.25;;;;;;;27.96;47.10;100622.06;4922008;29;20041;-87
2022/09/13 10:15:26;;;;;;;3.47;2.53;;;;;;;28.01;47.41;100620.88;4927742;29;20083;-86
2022/09/13 10:18:05;;;;;;;5.65;2.55;;;;;;;28.09;46.49;100619.66;4929690;29;20299;-84
2022/09/13 10:21:04;;;;;;;3.28;2.60;;;;;;;27.81;47.25;100617.63;4928378;29;20047;-86
2022/09/13 10:23:36;;;;;;;3.58;2.85;;;;;;;27.88;47.37;100626.88;4926956;29;20494;-86
2022/09/13 10:26:12;;;;;;;2.55;2.35;;;;;;;27.94;46.81;100620.88;4923144;29;20059;-87
2022/09/13 10:28:43;;;;;;;4.35;3.00;;;;;;;28.01;47.23;100626.50;4913081;29;20450;-89
2022/09/13 10:31:15;;;;;;;3.58;2.83;;;;;;;28.00;47.23;100611.63;4945462;29;20051;-86
2022/09/13 10:33:56;;;;;;;3.08;2.70;;;;;;;28.01;46.87;100609.63;4928397;29;20403;-86
2022/09/13 10:36:31;;;;;;;6.10;3.22;;;;;;;28.05;47.70;100607.59;4916087;29;20083;-87
2022/09/13 10:39:23;;;;;;;2.97;2.67;;;;;;;28.27;47.01;100604.84;4923528;29;20093;-89
2022/09/13 10:41:59;;;;;;;3.05;2.33;;;;;;;28.35;46.55;100605.63;4918660;29;20063;-86
2022/09/13 10:44:38;;;;;;;5.00;3.25;;;;;;;28.17;47.27;100607.22;4917159;29;20054;-86
2022/09/13 10:47:21;;;;;;;4.18;2.92;;;;;;;28.46;46.71;100600.81;4919954;29;20523;-85
2022/09/13 10:49:53;;;;;;;3.88;3.08;;;;;;;28.57;46.73;100601.59;4928237;29;20042;-87
2022/09/13 10:52:41;;;;;;;11.18;3.40;;;;;;;28.69;45.82;100591.13;4921822;29;20497;-87
2022/09/13 10:55:35;;;;;;;2.90;2.33;;;;;;;28.71;46.41;100599.97;4915628;29;20063;-86
2022/09/13 10:58:06;;;;;;;3.38;3.00;;;;;;;28.82;47.51;100594.28;4921189;29;20048;-86
2022/09/13 11:00:54;;;;;;;4.00;3.70;;;;;;;28.70;47.06;100587.09;4926824;29;20047;-84
2022/09/13 11:03:33;;;;;;;4.80;4.03;;;;;;;28.72;46.82;100583.88;4922123;29;20048;-87
2022/09/13 11:06:59;;;;;;;3.60;3.30;;;;;;;28.83;45.78;100579.00;4924350;29;20047;-86
2022/09/13 11:10:21;;;;;;;4.05;3.00;;;;;;;29.07;46.51;100570.91;4870423;29;20064;-85
2022/09/13 11:13:18;;;;;;;19.77;4.40;;;;;;;29.18;44.70;100573.69;4864580;29;20053;-87
2022/09/13 11:16:35;;;;;;;8.02;3.53;;;;;;;29.26;45.34;100566.00;4899184;29;20062;-86
2022/09/13 11:19:29;;;;;;;4.00;3.08;;;;;;;29.20;45.54;100574.06;4905147;29;20066;-88
2022/09/13 11:22:18;;;;;;;6.70;2.88;;;;;;;29.32;44.75;100564.38;4910720;29;20063;-88
2022/09/13 11:24:55;;;;;;;4.53;3.33;;;;;;;29.17;45.20;100558.00;4924046;29;20048;-87
2022/09/13 11:27:47;;;;;;;4.85;3.83;;;;;;;29.41;44.40;100567.53;4931098;29;20050;-87
2022/09/13 11:30:18;;;;;;;5.18;3.30;;;;;;;29.39;44.16;100558.69;4894913;29;20431;-87
2022/09/13 11:33:05;;;;;;;8.77;3.60;;;;;;;29.33;44.86;100563.16;4926130;29;20044;-87
2022/09/13 11:35:38;;;;;;;3.70;3.40;;;;;;;29.63;44.33;100565.41;4922952;29;20055;-88
2022/09/13 11:38:30;;;;;;;4.20;3.30;;;;;;;29.52;45.09;100561.06;4926503;29;20051;-88
2022/09/13 11:41:27;;;;;;;3.15;2.70;;;;;;;29.77;44.52;100572.16;4912187;29;20052;-90
2022/09/13 11:44:33;;;;;;;4.38;3.10;;;;;;;29.92;42.96;100564.41;4929695;29;20492;-90
2022/09/13 11:47:30;;;;;;;4.03;2.88;;;;;;;30.10;42.93;100566.31;4874531;29;20051;-88
2022/09/13 11:50:32;;;;;;;4.97;3.38;;;;;;;30.19;42.31;100569.44;4912051;29;20090;-88
2022/09/13 11:53:26;;;;;;;4.10;3.45;;;;;;;30.20;41.90;100562.56;4921146;29;20044;-89
2022/09/13 11:56:02;;;;;;;5.35;3.15;;;;;;;30.12;41.46;100559.03;4916381;29;20064;-88
2022/09/13 11:58:52;;;;;;;4.00;3.13;;;;;;;30.17;42.08;100552.13;4913980;29;20506;-88
2022/09/13 12:01:26;;;;;;;3.67;3.03;;;;;;;30.41;41.80;100550.28;4915712;29;20399;-86
2022/09/13 12:04:01;;;;;;;5.45;3.20;;;;;;;30.51;42.03;100540.09;4926217;29;20043;-85
2022/09/13 12:06:29;;;;;;;6.05;3.13;;;;;;;30.50;41.74;100549.78;4920648;29;20044;-91